sensor_id;sensor_type;location;lat;lon;timestamp;P1;durP1;ratioP1;P2;durP2;ratioP2
7759;SDS011;3924;48.830;9.262;2023-08-20T00:00:05;3.53;;;3.00;;
7759;SDS011;3924;48.830;9.262;2023-08-20T00:02:33;8.70;;;3.27;;
7759;SDS011;3924;48.830;9.262;2023-08-20T00:05:03;2.73;;;2.53;;
7759;SDS011;3924;48.830;9.262;2023-08-20T00:07:30;4.40;;;2.57;;
7759;SDS011;3924;48.830;9.262;2023-08-20T00:09:58;2.87;;;2.53;;
7759;SDS011;3924;48.830;9.262;2023-08-20T00:12:25;3.07;;;2.87;;
7759;SDS011;3924;48.830;9.262;2023-08-20T00:14:56;3.23;;;2.93;;
7759;SDS011;3924;48.830;9.262;2023-08-20T00:17:33;3.93;;;3.03;;
7759;SDS011;3924;48.830;9.262;2023-08-20T00:20:01;5.07;;;2.87;;
7759;SDS011;3924;48.830;9.262;2023-08-20T00:22:35;2.60;;;2.40;;
7759;SDS011;3924;48.830;9.262;2023-08-20T00:25:03;3.20;;;3.00;;
7759;SDS011;3924;48.830;9.262;2023-08-20T00:27:31;9.40;;;5.67;;
7759;SDS011;3924;48.830;9.262;2023-08-20T00:29:59;2.87;;;2.57;;
7759;SDS011;3924;48.830;9.262;2023-08-20T00:32:26;3.43;;;3.00;;
7759;SDS011;3924;48.830;9.262;2023-08-20T00:34:52;3.27;;;2.80;;
7759;SDS011;3924;48.830;9.262;2023-08-20T00:37:19;3.37;;;2.83;;
7759;SDS011;3924;48.830;9.262;2023-08-20T00:39:45;2.57;;;2.47;;
7759;SDS011;3924;48.830;9.262;2023-08-20T00:42:12;4.67;;;2.90;;
7759;SDS011;3924;48.830;9.262;2023-08-20T00:44:41;2.63;;;2.40;;
7759;SDS011;3924;48.830;9.262;2023-08-20T00:47:10;3.00;;;2.67;;
7759;SDS011;3924;48.830;9.262;2023-08-20T00:49:39;3.77;;;2.67;;
7759;SDS011;3924;48.830;9.262;2023-08-20T00:52:08;3.07;;;2.87;;
7759;SDS011;3924;48.830;9.262;2023-08-20T00:54:35;2.77;;;2.57;;
7759;SDS011;3924;48.830;9.262;2023-08-20T00:57:02;3.53;;;3.23;;
7759;SDS011;3924;48.830;9.262;2023-08-20T00:59:29;4.70;;;2.50;;
7759;SDS011;3924;48.830;9.262;2023-08-20T01:01:58;3.07;;;2.87;;
7759;SDS011;3924;48.830;9.262;2023-08-20T01:04:24;11.07;;;3.30;;
7759;SDS011;3924;48.830;9.262;2023-08-20T01:07:02;3.90;;;3.57;;
7759;SDS011;3924;48.830;9.262;2023-08-20T01:12:14;2.23;;;2.13;;
7759;SDS011;3924;48.830;9.262;2023-08-20T01:14:43;3.50;;;2.83;;
7759;SDS011;3924;48.830;9.262;2023-08-20T01:17:09;4.27;;;2.70;;
7759;SDS011;3924;48.830;9.262;2023-08-20T01:19:36;2.60;;;2.40;;
7759;SDS011;3924;48.830;9.262;2023-08-20T01:30:54;2.80;;;2.60;;
7759;SDS011;3924;48.830;9.262;2023-08-20T01:33:23;2.50;;;2.30;;
7759;SDS011;3924;48.830;9.262;2023-08-20T01:35:53;2.90;;;2.70;;
7759;SDS011;3924;48.830;9.262;2023-08-20T01:38:21;4.03;;;2.83;;
7759;SDS011;3924;48.830;9.262;2023-08-20T01:40:48;3.03;;;2.73;;
7759;SDS011;3924;48.830;9.262;2023-08-20T01:43:15;3.17;;;2.87;;
7759;SDS011;3924;48.830;9.262;2023-08-20T01:45:42;3.10;;;2.80;;
7759;SDS011;3924;48.830;9.262;2023-08-20T01:48:08;3.23;;;2.93;;
7759;SDS011;3924;48.830;9.262;2023-08-20T01:50:35;4.60;;;2.83;;
7759;SDS011;3924;48.830;9.262;2023-08-20T01:53:03;6.60;;;3.10;;
7759;SDS011;3924;48.830;9.262;2023-08-20T01:55:30;2.73;;;2.53;;
7759;SDS011;3924;48.830;9.262;2023-08-20T01:57:58;5.67;;;3.00;;
7759;SDS011;3924;48.830;9.262;2023-08-20T02:00:24;2.83;;;2.30;;
7759;SDS011;3924;48.830;9.262;2023-08-20T02:02:51;2.50;;;2.00;;
7759;SDS011;3924;48.830;9.262;2023-08-20T02:05:19;2.60;;;2.40;;
7759;SDS011;3924;48.830;9.262;2023-08-20T02:07:46;3.63;;;2.47;;
7759;SDS011;3924;48.830;9.262;2023-08-20T02:10:12;3.03;;;2.73;;
7759;SDS011;3924;48.830;9.262;2023-08-20T02:12:40;3.10;;;2.83;;
7759;SDS011;3924;48.830;9.262;2023-08-20T02:15:07;2.93;;;2.73;;
7759;SDS011;3924;48.830;9.262;2023-08-20T02:17:34;5.80;;;2.50;;
7759;SDS011;3924;48.830;9.262;2023-08-20T02:20:02;3.10;;;2.80;;
7759;SDS011;3924;48.830;9.262;2023-08-20T02:22:36;2.93;;;2.73;;
7759;SDS011;3924;48.830;9.262;2023-08-20T02:25:02;3.83;;;3.10;;
7759;SDS011;3924;48.830;9.262;2023-08-20T02:27:29;2.77;;;2.57;;
7759;SDS011;3924;48.830;9.262;2023-08-20T02:29:55;2.90;;;2.67;;
7759;SDS011;3924;48.830;9.262;2023-08-20T02:32:22;3.13;;;2.93;;
7759;SDS011;3924;48.830;9.262;2023-08-20T02:34:50;3.07;;;2.87;;
7759;SDS011;3924;48.830;9.262;2023-08-20T02:37:17;3.10;;;2.40;;
7759;SDS011;3924;48.830;9.262;2023-08-20T02:39:44;3.53;;;3.23;;
7759;SDS011;3924;48.830;9.262;2023-08-20T02:42:10;3.07;;;2.77;;
7759;SDS011;3924;48.830;9.262;2023-08-20T02:44:37;3.10;;;2.90;;
7759;SDS011;3924;48.830;9.262;2023-08-20T02:47:03;3.30;;;2.73;;
7759;SDS011;3924;48.830;9.262;2023-08-20T02:49:30;2.50;;;2.30;;
7759;SDS011;3924;48.830;9.262;2023-08-20T02:51:56;3.53;;;3.07;;
7759;SDS011;3924;48.830;9.262;2023-08-20T02:54:23;2.90;;;2.70;;
7759;SDS011;3924;48.830;9.262;2023-08-20T02:56:52;4.10;;;3.23;;
7759;SDS011;3924;48.830;9.262;2023-08-20T02:59:18;2.90;;;2.70;;
7759;SDS011;3924;48.830;9.262;2023-08-20T03:01:44;2.90;;;2.70;;
7759;SDS011;3924;48.830;9.262;2023-08-20T03:04:11;3.20;;;2.90;;
7759;SDS011;3924;48.830;9.262;2023-08-20T03:06:37;4.43;;;2.63;;
7759;SDS011;3924;48.830;9.262;2023-08-20T03:09:04;3.57;;;3.20;;
7759;SDS011;3924;48.830;9.262;2023-08-20T03:11:30;7.87;;;3.03;;
7759;SDS011;3924;48.830;9.262;2023-08-20T03:13:57;3.60;;;2.40;;
7759;SDS011;3924;48.830;9.262;2023-08-20T03:16:23;2.83;;;2.57;;
7759;SDS011;3924;48.830;9.262;2023-08-20T03:18:50;3.17;;;2.87;;
7759;SDS011;3924;48.830;9.262;2023-08-20T03:21:16;3.00;;;2.70;;
7759;SDS011;3924;48.830;9.262;2023-08-20T03:23:43;6.33;;;2.27;;
7759;SDS011;3924;48.830;9.262;2023-08-20T03:26:09;3.83;;;2.73;;
7759;SDS011;3924;48.830;9.262;2023-08-20T03:28:36;3.93;;;3.17;;
7759;SDS011;3924;48.830;9.262;2023-08-20T03:31:02;7.83;;;2.53;;
7759;SDS011;3924;48.830;9.262;2023-08-20T03:33:28;2.57;;;2.37;;
7759;SDS011;3924;48.830;9.262;2023-08-20T03:35:55;13.90;;;2.90;;
7759;SDS011;3924;48.830;9.262;2023-08-20T03:38:25;4.50;;;3.23;;
7759;SDS011;3924;48.830;9.262;2023-08-20T03:40:52;3.23;;;2.90;;
7759;SDS011;3924;48.830;9.262;2023-08-20T03:43:20;2.97;;;2.67;;
7759;SDS011;3924;48.830;9.262;2023-08-20T03:45:50;2.70;;;2.50;;
7759;SDS011;3924;48.830;9.262;2023-08-20T03:48:18;2.53;;;2.33;;
7759;SDS011;3924;48.830;9.262;2023-08-20T03:50:44;2.47;;;2.27;;
7759;SDS011;3924;48.830;9.262;2023-08-20T03:53:11;3.37;;;3.17;;
7759;SDS011;3924;48.830;9.262;2023-08-20T03:55:37;3.10;;;2.90;;
7759;SDS011;3924;48.830;9.262;2023-08-20T03:58:04;4.93;;;2.73;;
7759;SDS011;3924;48.830;9.262;2023-08-20T04:00:30;2.83;;;2.63;;
7759;SDS011;3924;48.830;9.262;2023-08-20T04:02:57;4.10;;;2.87;;
7759;SDS011;3924;48.830;9.262;2023-08-20T04:05:23;3.10;;;2.80;;
7759;SDS011;3924;48.830;9.262;2023-08-20T04:07:50;2.57;;;2.37;;
7759;SDS011;3924;48.830;9.262;2023-08-20T04:10:16;3.43;;;3.13;;
7759;SDS011;3924;48.830;9.262;2023-08-20T04:12:43;2.93;;;2.67;;
7759;SDS011;3924;48.830;9.262;2023-08-20T04:15:09;3.67;;;2.97;;
7759;SDS011;3924;48.830;9.262;2023-08-20T04:17:36;5.03;;;2.90;;
7759;SDS011;3924;48.830;9.262;2023-08-20T04:20:03;2.67;;;2.47;;
7759;SDS011;3924;48.830;9.262;2023-08-20T04:22:33;3.03;;;2.63;;
7759;SDS011;3924;48.830;9.262;2023-08-20T04:25:00;4.83;;;3.40;;
7759;SDS011;3924;48.830;9.262;2023-08-20T04:27:31;3.60;;;3.30;;
7759;SDS011;3924;48.830;9.262;2023-08-20T04:29:57;8.73;;;3.17;;
7759;SDS011;3924;48.830;9.262;2023-08-20T04:32:24;3.60;;;2.57;;
7759;SDS011;3924;48.830;9.262;2023-08-20T04:34:50;7.60;;;3.63;;
7759;SDS011;3924;48.830;9.262;2023-08-20T04:37:21;3.13;;;2.93;;
7759;SDS011;3924;48.830;9.262;2023-08-20T04:39:47;3.20;;;2.43;;
7759;SDS011;3924;48.830;9.262;2023-08-20T04:42:15;5.07;;;3.07;;
7759;SDS011;3924;48.830;9.262;2023-08-20T04:44:41;3.07;;;2.53;;
7759;SDS011;3924;48.830;9.262;2023-08-20T04:47:11;4.47;;;3.40;;
7759;SDS011;3924;48.830;9.262;2023-08-20T04:49:39;4.60;;;2.90;;
7759;SDS011;3924;48.830;9.262;2023-08-20T04:52:05;3.93;;;3.50;;
7759;SDS011;3924;48.830;9.262;2023-08-20T04:54:32;3.10;;;2.90;;
7759;SDS011;3924;48.830;9.262;2023-08-20T04:56:58;2.57;;;2.37;;
7759;SDS011;3924;48.830;9.262;2023-08-20T04:59:25;2.73;;;2.53;;
7759;SDS011;3924;48.830;9.262;2023-08-20T05:01:52;2.73;;;2.50;;
7759;SDS011;3924;48.830;9.262;2023-08-20T05:04:18;3.83;;;3.13;;
7759;SDS011;3924;48.830;9.262;2023-08-20T05:06:45;3.60;;;3.30;;
7759;SDS011;3924;48.830;9.262;2023-08-20T05:09:11;4.07;;;3.63;;
7759;SDS011;3924;48.830;9.262;2023-08-20T05:11:38;8.87;;;3.47;;
7759;SDS011;3924;48.830;9.262;2023-08-20T05:14:05;2.67;;;2.47;;
7759;SDS011;3924;48.830;9.262;2023-08-20T05:16:31;3.90;;;2.87;;
7759;SDS011;3924;48.830;9.262;2023-08-20T05:18:58;3.57;;;3.27;;
7759;SDS011;3924;48.830;9.262;2023-08-20T05:21:24;3.63;;;2.87;;
7759;SDS011;3924;48.830;9.262;2023-08-20T05:23:52;3.53;;;3.23;;
7759;SDS011;3924;48.830;9.262;2023-08-20T05:26:18;3.03;;;2.73;;
7759;SDS011;3924;48.830;9.262;2023-08-20T05:28:45;3.87;;;3.53;;
7759;SDS011;3924;48.830;9.262;2023-08-20T05:31:11;3.63;;;3.30;;
7759;SDS011;3924;48.830;9.262;2023-08-20T05:33:38;4.23;;;3.83;;
7759;SDS011;3924;48.830;9.262;2023-08-20T05:36:04;3.20;;;2.90;;
7759;SDS011;3924;48.830;9.262;2023-08-20T05:38:31;3.43;;;3.13;;
7759;SDS011;3924;48.830;9.262;2023-08-20T05:40:57;2.97;;;2.77;;
7759;SDS011;3924;48.830;9.262;2023-08-20T05:43:24;3.07;;;2.80;;
7759;SDS011;3924;48.830;9.262;2023-08-20T05:45:50;3.07;;;2.83;;
7759;SDS011;3924;48.830;9.262;2023-08-20T05:48:17;5.17;;;3.13;;
7759;SDS011;3924;48.830;9.262;2023-08-20T05:50:44;3.27;;;2.93;;
7759;SDS011;3924;48.830;9.262;2023-08-20T05:53:10;3.33;;;3.03;;
7759;SDS011;3924;48.830;9.262;2023-08-20T05:55:37;3.70;;;3.30;;
7759;SDS011;3924;48.830;9.262;2023-08-20T05:58:04;3.63;;;3.33;;
7759;SDS011;3924;48.830;9.262;2023-08-20T06:00:30;3.67;;;3.13;;
7759;SDS011;3924;48.830;9.262;2023-08-20T06:02:57;3.93;;;3.53;;
7759;SDS011;3924;48.830;9.262;2023-08-20T06:05:23;4.10;;;3.70;;
7759;SDS011;3924;48.830;9.262;2023-08-20T06:07:50;2.77;;;2.57;;
7759;SDS011;3924;48.830;9.262;2023-08-20T06:10:16;3.90;;;3.57;;
7759;SDS011;3924;48.830;9.262;2023-08-20T06:12:43;5.73;;;3.90;;
7759;SDS011;3924;48.830;9.262;2023-08-20T06:15:09;3.87;;;3.40;;
7759;SDS011;3924;48.830;9.262;2023-08-20T06:17:36;5.70;;;3.60;;
7759;SDS011;3924;48.830;9.262;2023-08-20T06:20:03;3.87;;;3.43;;
7759;SDS011;3924;48.830;9.262;2023-08-20T06:22:33;4.00;;;2.77;;
7759;SDS011;3924;48.830;9.262;2023-08-20T06:25:00;5.10;;;3.50;;
7759;SDS011;3924;48.830;9.262;2023-08-20T06:27:26;3.77;;;3.50;;
7759;SDS011;3924;48.830;9.262;2023-08-20T06:29:53;3.43;;;3.10;;
7759;SDS011;3924;48.830;9.262;2023-08-20T06:32:19;6.77;;;3.87;;
7759;SDS011;3924;48.830;9.262;2023-08-20T06:34:46;3.50;;;3.20;;
7759;SDS011;3924;48.830;9.262;2023-08-20T06:37:12;3.57;;;3.27;;
7759;SDS011;3924;48.830;9.262;2023-08-20T06:39:39;5.77;;;2.77;;
7759;SDS011;3924;48.830;9.262;2023-08-20T06:42:05;4.83;;;4.03;;
7759;SDS011;3924;48.830;9.262;2023-08-20T06:44:32;5.00;;;3.10;;
7759;SDS011;3924;48.830;9.262;2023-08-20T06:46:58;3.23;;;2.90;;
7759;SDS011;3924;48.830;9.262;2023-08-20T06:49:25;3.37;;;3.07;;
7759;SDS011;3924;48.830;9.262;2023-08-20T06:51:51;3.50;;;3.20;;
7759;SDS011;3924;48.830;9.262;2023-08-20T06:54:18;6.20;;;3.20;;
7759;SDS011;3924;48.830;9.262;2023-08-20T06:56:44;5.33;;;4.00;;
7759;SDS011;3924;48.830;9.262;2023-08-20T06:59:12;3.53;;;3.23;;
7759;SDS011;3924;48.830;9.262;2023-08-20T07:01:38;5.17;;;3.37;;
7759;SDS011;3924;48.830;9.262;2023-08-20T07:04:05;5.20;;;3.87;;
7759;SDS011;3924;48.830;9.262;2023-08-20T07:06:31;5.53;;;3.30;;
7759;SDS011;3924;48.830;9.262;2023-08-20T07:08:58;3.37;;;3.10;;
7759;SDS011;3924;48.830;9.262;2023-08-20T07:11:24;4.70;;;3.73;;
7759;SDS011;3924;48.830;9.262;2023-08-20T07:13:51;3.77;;;3.03;;
7759;SDS011;3924;48.830;9.262;2023-08-20T07:16:17;3.77;;;3.47;;
7759;SDS011;3924;48.830;9.262;2023-08-20T07:18:45;5.07;;;3.50;;
7759;SDS011;3924;48.830;9.262;2023-08-20T07:21:11;4.57;;;3.57;;
7759;SDS011;3924;48.830;9.262;2023-08-20T07:23:38;6.30;;;3.27;;
7759;SDS011;3924;48.830;9.262;2023-08-20T07:26:05;5.80;;;4.37;;
7759;SDS011;3924;48.830;9.262;2023-08-20T07:28:34;5.10;;;3.67;;
7759;SDS011;3924;48.830;9.262;2023-08-20T07:31:19;3.57;;;3.27;;
7759;SDS011;3924;48.830;9.262;2023-08-20T07:33:46;5.47;;;3.20;;
7759;SDS011;3924;48.830;9.262;2023-08-20T07:36:14;3.70;;;3.40;;
7759;SDS011;3924;48.830;9.262;2023-08-20T07:38:42;5.33;;;3.93;;
7759;SDS011;3924;48.830;9.262;2023-08-20T07:41:10;3.30;;;3.00;;
7759;SDS011;3924;48.830;9.262;2023-08-20T07:43:40;3.57;;;3.27;;
7759;SDS011;3924;48.830;9.262;2023-08-20T07:46:07;3.30;;;2.97;;
7759;SDS011;3924;48.830;9.262;2023-08-20T07:48:35;6.27;;;4.03;;
7759;SDS011;3924;48.830;9.262;2023-08-20T07:51:02;4.27;;;3.33;;
7759;SDS011;3924;48.830;9.262;2023-08-20T07:53:29;4.47;;;2.77;;
7759;SDS011;3924;48.830;9.262;2023-08-20T07:55:56;4.17;;;3.80;;
7759;SDS011;3924;48.830;9.262;2023-08-20T07:58:23;4.00;;;3.60;;
7759;SDS011;3924;48.830;9.262;2023-08-20T08:00:49;4.63;;;3.33;;
7759;SDS011;3924;48.830;9.262;2023-08-20T08:03:16;4.10;;;3.70;;
7759;SDS011;3924;48.830;9.262;2023-08-20T08:05:47;5.77;;;3.57;;
7759;SDS011;3924;48.830;9.262;2023-08-20T08:08:17;3.90;;;3.17;;
7759;SDS011;3924;48.830;9.262;2023-08-20T08:10:44;4.90;;;3.63;;
7759;SDS011;3924;48.830;9.262;2023-08-20T08:13:12;4.23;;;3.80;;
7759;SDS011;3924;48.830;9.262;2023-08-20T08:15:40;4.17;;;3.60;;
7759;SDS011;3924;48.830;9.262;2023-08-20T08:18:06;4.27;;;3.87;;
7759;SDS011;3924;48.830;9.262;2023-08-20T08:20:34;4.43;;;3.53;;
7759;SDS011;3924;48.830;9.262;2023-08-20T08:23:00;3.60;;;3.30;;
7759;SDS011;3924;48.830;9.262;2023-08-20T08:25:27;3.87;;;3.57;;
7759;SDS011;3924;48.830;9.262;2023-08-20T08:27:54;4.13;;;3.73;;
7759;SDS011;3924;48.830;9.262;2023-08-20T08:30:26;2.90;;;2.70;;
7759;SDS011;3924;48.830;9.262;2023-08-20T08:32:53;3.87;;;3.57;;
7759;SDS011;3924;48.830;9.262;2023-08-20T08:35:19;4.80;;;4.03;;
7759;SDS011;3924;48.830;9.262;2023-08-20T08:37:46;4.70;;;4.30;;
7759;SDS011;3924;48.830;9.262;2023-08-20T08:40:13;4.83;;;3.33;;
7759;SDS011;3924;48.830;9.262;2023-08-20T08:42:40;3.90;;;3.43;;
7759;SDS011;3924;48.830;9.262;2023-08-20T08:45:07;4.67;;;4.23;;
7759;SDS011;3924;48.830;9.262;2023-08-20T08:47:35;3.53;;;3.23;;
7759;SDS011;3924;48.830;9.262;2023-08-20T08:50:03;3.20;;;3.00;;
7759;SDS011;3924;48.830;9.262;2023-08-20T08:52:30;4.17;;;3.77;;
7759;SDS011;3924;48.830;9.262;2023-08-20T08:54:58;5.23;;;4.23;;
7759;SDS011;3924;48.830;9.262;2023-08-20T08:57:25;6.90;;;4.23;;
7759;SDS011;3924;48.830;9.262;2023-08-20T08:59:52;3.80;;;3.40;;
7759;SDS011;3924;48.830;9.262;2023-08-20T09:02:18;3.97;;;3.57;;
7759;SDS011;3924;48.830;9.262;2023-08-20T09:04:45;3.30;;;3.00;;
7759;SDS011;3924;48.830;9.262;2023-08-20T09:07:12;3.97;;;3.57;;
7759;SDS011;3924;48.830;9.262;2023-08-20T09:09:46;5.23;;;4.83;;
7759;SDS011;3924;48.830;9.262;2023-08-20T09:12:16;5.20;;;4.17;;
7759;SDS011;3924;48.830;9.262;2023-08-20T09:14:48;3.90;;;3.10;;
7759;SDS011;3924;48.830;9.262;2023-08-20T09:17:16;4.47;;;4.07;;
7759;SDS011;3924;48.830;9.262;2023-08-20T09:19:44;3.03;;;2.83;;
7759;SDS011;3924;48.830;9.262;2023-08-20T09:22:15;4.03;;;3.67;;
7759;SDS011;3924;48.830;9.262;2023-08-20T09:24:45;4.00;;;3.63;;
7759;SDS011;3924;48.830;9.262;2023-08-20T09:27:12;2.73;;;2.53;;
7759;SDS011;3924;48.830;9.262;2023-08-20T09:29:46;3.47;;;3.17;;
7759;SDS011;3924;48.830;9.262;2023-08-20T09:32:18;3.20;;;2.90;;
7759;SDS011;3924;48.830;9.262;2023-08-20T09:34:48;4.20;;;2.70;;
7759;SDS011;3924;48.830;9.262;2023-08-20T09:37:17;3.23;;;2.87;;
7759;SDS011;3924;48.830;9.262;2023-08-20T09:39:45;6.70;;;3.20;;
7759;SDS011;3924;48.830;9.262;2023-08-20T09:42:12;4.57;;;3.67;;
7759;SDS011;3924;48.830;9.262;2023-08-20T09:44:43;5.37;;;3.53;;
7759;SDS011;3924;48.830;9.262;2023-08-20T09:47:14;6.00;;;3.33;;
7759;SDS011;3924;48.830;9.262;2023-08-20T09:49:45;3.00;;;2.70;;
7759;SDS011;3924;48.830;9.262;2023-08-20T09:52:17;2.70;;;2.50;;
7759;SDS011;3924;48.830;9.262;2023-08-20T09:57:36;3.97;;;3.43;;
7759;SDS011;3924;48.830;9.262;2023-08-20T10:00:05;3.27;;;2.97;;
7759;SDS011;3924;48.830;9.262;2023-08-20T10:02:36;4.33;;;3.33;;
7759;SDS011;3924;48.830;9.262;2023-08-20T10:05:06;2.53;;;2.43;;
7759;SDS011;3924;48.830;9.262;2023-08-20T10:07:34;3.27;;;2.33;;
7759;SDS011;3924;48.830;9.262;2023-08-20T10:10:02;5.03;;;3.20;;
7759;SDS011;3924;48.830;9.262;2023-08-20T10:12:31;7.27;;;3.50;;
7759;SDS011;3924;48.830;9.262;2023-08-20T10:14:58;3.10;;;2.90;;
7759;SDS011;3924;48.830;9.262;2023-08-20T10:17:28;3.43;;;3.00;;
7759;SDS011;3924;48.830;9.262;2023-08-20T10:19:57;3.60;;;3.30;;
7759;SDS011;3924;48.830;9.262;2023-08-20T10:22:43;3.10;;;2.60;;
7759;SDS011;3924;48.830;9.262;2023-08-20T10:25:11;3.93;;;2.90;;
7759;SDS011;3924;48.830;9.262;2023-08-20T10:27:51;2.90;;;2.70;;
7759;SDS011;3924;48.830;9.262;2023-08-20T10:30:28;3.40;;;3.20;;
7759;SDS011;3924;48.830;9.262;2023-08-20T10:32:56;3.37;;;3.13;;
7759;SDS011;3924;48.830;9.262;2023-08-20T10:35:28;3.43;;;3.20;;
7759;SDS011;3924;48.830;9.262;2023-08-20T10:38:13;3.77;;;2.70;;
7759;SDS011;3924;48.830;9.262;2023-08-20T10:43:34;3.47;;;2.67;;
7759;SDS011;3924;48.830;9.262;2023-08-20T10:46:04;3.63;;;3.17;;
7759;SDS011;3924;48.830;9.262;2023-08-20T10:48:42;3.23;;;2.93;;
7759;SDS011;3924;48.830;9.262;2023-08-20T10:51:34;3.30;;;3.00;;
7759;SDS011;3924;48.830;9.262;2023-08-20T10:56:39;2.70;;;2.50;;
7759;SDS011;3924;48.830;9.262;2023-08-20T10:59:15;2.30;;;2.20;;
7759;SDS011;3924;48.830;9.262;2023-08-20T11:01:46;2.87;;;2.67;;
7759;SDS011;3924;48.830;9.262;2023-08-20T11:04:15;2.60;;;2.40;;
7759;SDS011;3924;48.830;9.262;2023-08-20T11:06:42;2.23;;;2.13;;
7759;SDS011;3924;48.830;9.262;2023-08-20T11:09:10;2.80;;;2.37;;
7759;SDS011;3924;48.830;9.262;2023-08-20T11:11:39;2.50;;;2.30;;
7759;SDS011;3924;48.830;9.262;2023-08-20T11:14:07;2.23;;;2.03;;
7759;SDS011;3924;48.830;9.262;2023-08-20T11:16:37;2.77;;;2.27;;
7759;SDS011;3924;48.830;9.262;2023-08-20T11:19:04;1.97;;;1.77;;
7759;SDS011;3924;48.830;9.262;2023-08-20T11:21:35;2.60;;;2.40;;
7759;SDS011;3924;48.830;9.262;2023-08-20T11:24:02;2.90;;;2.60;;
7759;SDS011;3924;48.830;9.262;2023-08-20T11:26:29;3.53;;;2.60;;
7759;SDS011;3924;48.830;9.262;2023-08-20T11:28:56;3.20;;;2.30;;
7759;SDS011;3924;48.830;9.262;2023-08-20T11:31:22;2.47;;;2.27;;
7759;SDS011;3924;48.830;9.262;2023-08-20T11:33:49;4.43;;;2.37;;
7759;SDS011;3924;48.830;9.262;2023-08-20T11:36:16;2.30;;;2.10;;
7759;SDS011;3924;48.830;9.262;2023-08-20T11:38:48;2.90;;;2.70;;
7759;SDS011;3924;48.830;9.262;2023-08-20T11:41:19;2.60;;;2.37;;
7759;SDS011;3924;48.830;9.262;2023-08-20T11:43:49;2.67;;;2.40;;
7759;SDS011;3924;48.830;9.262;2023-08-20T11:46:17;2.70;;;2.50;;
7759;SDS011;3924;48.830;9.262;2023-08-20T11:49:02;2.87;;;2.67;;
7759;SDS011;3924;48.830;9.262;2023-08-20T11:51:34;2.60;;;2.27;;
7759;SDS011;3924;48.830;9.262;2023-08-20T11:54:07;2.93;;;2.70;;
7759;SDS011;3924;48.830;9.262;2023-08-20T11:56:35;2.70;;;2.50;;
7759;SDS011;3924;48.830;9.262;2023-08-20T11:59:02;2.20;;;2.10;;
7759;SDS011;3924;48.830;9.262;2023-08-20T12:01:32;2.93;;;2.73;;
7759;SDS011;3924;48.830;9.262;2023-08-20T12:04:06;3.27;;;2.97;;
7759;SDS011;3924;48.830;9.262;2023-08-20T12:06:34;3.77;;;2.23;;
7759;SDS011;3924;48.830;9.262;2023-08-20T12:09:02;3.13;;;2.20;;
7759;SDS011;3924;48.830;9.262;2023-08-20T12:11:48;2.50;;;2.30;;
7759;SDS011;3924;48.830;9.262;2023-08-20T12:14:18;2.40;;;2.23;;
7759;SDS011;3924;48.830;9.262;2023-08-20T12:16:45;5.77;;;2.40;;
7759;SDS011;3924;48.830;9.262;2023-08-20T12:19:13;2.67;;;2.47;;
7759;SDS011;3924;48.830;9.262;2023-08-20T12:21:45;5.50;;;2.40;;
7759;SDS011;3924;48.830;9.262;2023-08-20T12:24:12;3.20;;;2.07;;
7759;SDS011;3924;48.830;9.262;2023-08-20T12:26:41;3.73;;;2.00;;
7759;SDS011;3924;48.830;9.262;2023-08-20T12:29:08;6.27;;;2.13;;
7759;SDS011;3924;48.830;9.262;2023-08-20T12:31:38;1.97;;;1.87;;
7759;SDS011;3924;48.830;9.262;2023-08-20T12:34:06;2.27;;;2.13;;
7759;SDS011;3924;48.830;9.262;2023-08-20T12:36:32;2.53;;;2.33;;
7759;SDS011;3924;48.830;9.262;2023-08-20T12:38:59;2.37;;;2.27;;
7759;SDS011;3924;48.830;9.262;2023-08-20T12:41:25;2.57;;;2.37;;
7759;SDS011;3924;48.830;9.262;2023-08-20T12:43:52;1.93;;;1.73;;
7759;SDS011;3924;48.830;9.262;2023-08-20T12:46:21;2.47;;;2.27;;
7759;SDS011;3924;48.830;9.262;2023-08-20T12:48:48;1.90;;;1.80;;
7759;SDS011;3924;48.830;9.262;2023-08-20T12:51:16;2.57;;;1.70;;
7759;SDS011;3924;48.830;9.262;2023-08-20T12:53:43;1.90;;;1.80;;
7759;SDS011;3924;48.830;9.262;2023-08-20T12:56:10;2.00;;;1.90;;
7759;SDS011;3924;48.830;9.262;2023-08-20T12:58:38;3.20;;;2.50;;
7759;SDS011;3924;48.830;9.262;2023-08-20T13:01:04;2.13;;;1.93;;
7759;SDS011;3924;48.830;9.262;2023-08-20T13:03:31;2.23;;;2.03;;
7759;SDS011;3924;48.830;9.262;2023-08-20T13:05:58;2.90;;;2.60;;
7759;SDS011;3924;48.830;9.262;2023-08-20T13:08:26;6.60;;;1.90;;
7759;SDS011;3924;48.830;9.262;2023-08-20T13:10:53;2.13;;;1.90;;
7759;SDS011;3924;48.830;9.262;2023-08-20T13:13:22;2.53;;;2.33;;
7759;SDS011;3924;48.830;9.262;2023-08-20T13:15:50;2.13;;;1.80;;
7759;SDS011;3924;48.830;9.262;2023-08-20T13:18:18;6.10;;;2.17;;
7759;SDS011;3924;48.830;9.262;2023-08-20T13:20:45;1.90;;;1.80;;
7759;SDS011;3924;48.830;9.262;2023-08-20T13:23:12;1.80;;;1.70;;
7759;SDS011;3924;48.830;9.262;2023-08-20T13:25:39;2.27;;;2.07;;
7759;SDS011;3924;48.830;9.262;2023-08-20T13:28:05;1.70;;;1.60;;
7759;SDS011;3924;48.830;9.262;2023-08-20T13:30:32;1.60;;;1.50;;
7759;SDS011;3924;48.830;9.262;2023-08-20T13:32:59;1.80;;;1.63;;
7759;SDS011;3924;48.830;9.262;2023-08-20T13:35:27;2.50;;;2.30;;
7759;SDS011;3924;48.830;9.262;2023-08-20T13:37:54;1.67;;;1.57;;
7759;SDS011;3924;48.830;9.262;2023-08-20T13:40:20;1.50;;;1.40;;
7759;SDS011;3924;48.830;9.262;2023-08-20T13:42:47;4.37;;;1.97;;
7759;SDS011;3924;48.830;9.262;2023-08-20T13:45:13;4.70;;;1.67;;
7759;SDS011;3924;48.830;9.262;2023-08-20T13:47:40;1.83;;;1.73;;
7759;SDS011;3924;48.830;9.262;2023-08-20T13:50:07;1.47;;;1.37;;
7759;SDS011;3924;48.830;9.262;2023-08-20T13:52:33;5.40;;;1.47;;
7759;SDS011;3924;48.830;9.262;2023-08-20T13:55:00;2.43;;;2.03;;
7759;SDS011;3924;48.830;9.262;2023-08-20T13:57:27;3.43;;;1.97;;
7759;SDS011;3924;48.830;9.262;2023-08-20T13:59:53;1.73;;;1.63;;
7759;SDS011;3924;48.830;9.262;2023-08-20T14:02:20;3.07;;;2.47;;
7759;SDS011;3924;48.830;9.262;2023-08-20T14:04:46;2.70;;;2.50;;
7759;SDS011;3924;48.830;9.262;2023-08-20T14:07:13;2.03;;;1.83;;
7759;SDS011;3924;48.830;9.262;2023-08-20T14:09:40;2.80;;;2.60;;
7759;SDS011;3924;48.830;9.262;2023-08-20T14:12:07;2.30;;;2.20;;
7759;SDS011;3924;48.830;9.262;2023-08-20T14:14:34;3.27;;;2.37;;
7759;SDS011;3924;48.830;9.262;2023-08-20T14:17:00;3.10;;;2.23;;
7759;SDS011;3924;48.830;9.262;2023-08-20T14:19:27;2.67;;;2.23;;
7759;SDS011;3924;48.830;9.262;2023-08-20T14:21:53;2.37;;;2.17;;
7759;SDS011;3924;48.830;9.262;2023-08-20T14:24:19;2.70;;;2.50;;
7759;SDS011;3924;48.830;9.262;2023-08-20T14:26:46;6.40;;;2.70;;
7759;SDS011;3924;48.830;9.262;2023-08-20T14:29:12;2.47;;;2.30;;
7759;SDS011;3924;48.830;9.262;2023-08-20T14:31:39;2.37;;;2.17;;
7759;SDS011;3924;48.830;9.262;2023-08-20T14:34:05;2.27;;;2.07;;
7759;SDS011;3924;48.830;9.262;2023-08-20T14:36:32;2.07;;;1.97;;
7759;SDS011;3924;48.830;9.262;2023-08-20T14:38:59;5.77;;;2.00;;
7759;SDS011;3924;48.830;9.262;2023-08-20T14:41:25;2.30;;;2.10;;
7759;SDS011;3924;48.830;9.262;2023-08-20T14:43:52;2.53;;;1.97;;
7759;SDS011;3924;48.830;9.262;2023-08-20T14:46:18;2.70;;;2.50;;
7759;SDS011;3924;48.830;9.262;2023-08-20T14:48:45;2.27;;;2.07;;
7759;SDS011;3924;48.830;9.262;2023-08-20T14:51:12;3.40;;;3.10;;
7759;SDS011;3924;48.830;9.262;2023-08-20T14:53:39;1.52;;;1.42;;
7759;SDS011;3924;48.830;9.262;2023-08-20T14:56:05;2.20;;;2.00;;
7759;SDS011;3924;48.830;9.262;2023-08-20T14:58:32;2.50;;;2.13;;
7759;SDS011;3924;48.830;9.262;2023-08-20T15:00:58;3.22;;;2.35;;
7759;SDS011;3924;48.830;9.262;2023-08-20T15:03:25;2.07;;;1.90;;
7759;SDS011;3924;48.830;9.262;2023-08-20T15:05:52;3.10;;;2.35;;
7759;SDS011;3924;48.830;9.262;2023-08-20T15:08:18;2.30;;;2.20;;
7759;SDS011;3924;48.830;9.262;2023-08-20T15:10:58;2.72;;;1.90;;
7759;SDS011;3924;48.830;9.262;2023-08-20T15:13:29;2.00;;;1.90;;
7759;SDS011;3924;48.830;9.262;2023-08-20T15:15:57;2.70;;;2.30;;
7759;SDS011;3924;48.830;9.262;2023-08-20T15:18:23;2.28;;;2.10;;
7759;SDS011;3924;48.830;9.262;2023-08-20T15:20:57;2.08;;;1.98;;
7759;SDS011;3924;48.830;9.262;2023-08-20T15:23:24;3.50;;;2.40;;
7759;SDS011;3924;48.830;9.262;2023-08-20T15:25:52;2.20;;;2.00;;
7759;SDS011;3924;48.830;9.262;2023-08-20T15:28:21;1.80;;;1.70;;
7759;SDS011;3924;48.830;9.262;2023-08-20T15:30:49;2.57;;;2.03;;
7759;SDS011;3924;48.830;9.262;2023-08-20T15:33:16;2.38;;;1.90;;
7759;SDS011;3924;48.830;9.262;2023-08-20T15:35:42;2.22;;;1.70;;
7759;SDS011;3924;48.830;9.262;2023-08-20T15:38:09;2.40;;;2.20;;